Time;durP1;ratioP1;P1;durP2;ratioP2;P2;SDS_P1;SDS_P2;PMS_P1;PMS_P2;Temp;Humidity;BMP_temperature;BMP_pressure;BME280_temperature;BME280_humidity;BME280_pressure;Samples;Min_cycle;Max_cycle;Signal;HPM_P1;HPM_P2
2023/04/06 00:00:36;;;;;;;9.45;4.53;;;;;;;;;;5055251;28;20524;-90
2023/04/06 00:03:03;;;;;;;12.93;5.18;;;;;;;;;;5056397;28;20493;-89
2023/04/06 00:05:31;;;;;;;8.68;4.82;;;;;;;;;;5056271;28;20118;-89
2023/04/06 00:07:58;;;;;;;8.45;4.18;;;;;;;;;;5055718;28;20045;-88
2023/04/06 00:10:26;;;;;;;5.00;3.78;;;;;;;;;;5054938;28;20067;-88
2023/04/06 00:12:53;;;;;;;8.52;4.57;;;;;;;;;;5055294;28;20127;-88
2023/04/06 00:15:21;;;;;;;8.80;4.90;;;;;;;;;;5055044;28;20052;-88
2023/04/06 00:17:48;;;;;;;14.90;5.93;;;;;;;;;;5055399;28;20133;-88
2023/04/06 00:20:16;;;;;;;8.57;5.93;;;;;;;;;;5056528;28;20045;-88
2023/04/06 00:22:43;;;;;;;9.43;5.57;;;;;;;;;;5054881;28;20131;-89
2023/04/06 00:25:11;;;;;;;10.63;5.28;;;;;;;;;;5054745;28;20049;-88
2023/04/06 00:27:38;;;;;;;7.18;5.50;;;;;;;;;;5055738;28;20048;-87
2023/04/06 00:30:06;;;;;;;10.05;6.13;;;;;;;;;;5056004;28;20049;-88
2023/04/06 00:32:34;;;;;;;12.98;5.68;;;;;;;;;;5054449;28;20053;-88
2023/04/06 00:35:05;;;;;;;8.90;5.35;;;;;;;;;;5054719;28;20091;-87
2023/04/06 00:37:35;;;;;;;9.93;5.22;;;;;;;;;;5055553;28;20128;-88
2023/04/06 00:40:03;;;;;;;11.68;5.60;;;;;;;;;;5055480;28;20059;-87
2023/04/06 00:42:30;;;;;;;6.57;5.15;;;;;;;;;;5055557;28;20060;-88
2023/04/06 00:44:58;;;;;;;10.35;5.40;;;;;;;;;;5055572;28;20053;-88
2023/04/06 00:47:26;;;;;;;6.88;5.68;;;;;;;;;;5054438;28;20049;-88
2023/04/06 00:49:54;;;;;;;10.63;5.05;;;;;;;;;;5054709;28;20052;-88
2023/04/06 00:52:21;;;;;;;9.55;5.63;;;;;;;;;;5054610;28;20386;-88
2023/04/06 00:54:49;;;;;;;10.85;6.15;;;;;;;;;;5054831;28;20061;-88
2023/04/06 00:57:16;;;;;;;10.45;5.45;;;;;;;;;;5054724;28;20055;-88
2023/04/06 00:59:44;;;;;;;8.25;5.38;;;;;;;;;;5054360;28;20052;-88
2023/04/06 01:02:11;;;;;;;8.60;5.53;;;;;;;;;;5055097;28;20052;-87
2023/04/06 01:04:38;;;;;;;8.30;5.15;;;;;;;;;;5054468;28;20512;-88
2023/04/06 01:07:06;;;;;;;4.93;4.43;;;;;;;;;;5055140;28;20460;-87
2023/04/06 01:09:33;;;;;;;7.10;4.88;;;;;;;;;;5053849;28;20064;-87
2023/04/06 01:12:00;;;;;;;5.95;4.50;;;;;;;;;;5054437;28;20053;-87
2023/04/06 01:14:28;;;;;;;5.15;4.32;;;;;;;;;;5054940;28;20049;-86
2023/04/06 01:17:00;;;;;;;7.13;4.30;;;;;;;;;;5055083;28;20413;-86
2023/04/06 01:19:27;;;;;;;8.38;4.45;;;;;;;;;;5054772;28;20058;-86
2023/04/06 01:21:55;;;;;;;9.55;5.05;;;;;;;;;;5053753;28;20053;-87
2023/04/06 01:24:23;;;;;;;7.30;4.63;;;;;;;;;;5053671;28;20132;-87
2023/04/06 01:26:50;;;;;;;7.22;4.93;;;;;;;;;;5053838;28;20045;-86
2023/04/06 01:29:17;;;;;;;7.68;4.63;;;;;;;;;;5053507;28;20487;-87
2023/04/06 01:31:44;;;;;;;8.25;4.68;;;;;;;;;;5053892;28;20413;-87
2023/04/06 01:34:12;;;;;;;8.15;4.45;;;;;;;;;;5054238;28;20045;-86
2023/04/06 01:36:39;;;;;;;8.15;4.72;;;;;;;;;;5052597;28;20095;-86
2023/04/06 01:39:06;;;;;;;6.03;5.18;;;;;;;;;;5054401;28;20055;-86
2023/04/06 01:41:34;;;;;;;9.73;4.63;;;;;;;;;;5054390;28;20041;-86
2023/04/06 01:44:01;;;;;;;9.90;5.22;;;;;;;;;;5054135;28;20052;-86
2023/04/06 01:46:31;;;;;;;5.55;4.82;;;;;;;;;;5053863;28;20044;-85
2023/04/06 01:48:58;;;;;;;7.38;4.90;;;;;;;;;;5053138;28;20049;-86
2023/04/06 01:51:26;;;;;;;6.72;5.03;;;;;;;;;;5052767;28;20087;-86
2023/04/06 01:53:54;;;;;;;7.90;4.90;;;;;;;;;;5052860;28;20056;-85
2023/04/06 01:56:21;;;;;;;8.15;5.20;;;;;;;;;;5053786;28;20049;-86
2023/04/06 01:58:48;;;;;;;7.43;4.97;;;;;;;;;;5052940;28;20049;-86
2023/04/06 02:01:16;;;;;;;5.60;5.10;;;;;;;;;;5052612;28;20056;-86
2023/04/06 02:03:43;;;;;;;7.78;5.72;;;;;;;;;;5053840;28;20052;-86
2023/04/06 02:06:10;;;;;;;7.75;5.57;;;;;;;;;;5052737;28;20056;-86
2023/04/06 02:08:37;;;;;;;8.75;6.05;;;;;;;;;;5052656;28;20139;-86
2023/04/06 02:11:04;;;;;;;7.78;5.38;;;;;;;;;;5052591;28;20485;-86
2023/04/06 02:13:32;;;;;;;10.55;5.78;;;;;;;;;;5053484;28;20092;-86
2023/04/06 02:15:59;;;;;;;11.10;5.93;;;;;;;;;;5052476;28;20053;-86
2023/04/06 02:18:28;;;;;;;10.43;5.45;;;;;;;;;;5053463;28;20049;-86
2023/04/06 02:20:55;;;;;;;8.52;5.95;;;;;;;;;;5052825;28;20056;-86
2023/04/06 02:23:22;;;;;;;7.95;5.90;;;;;;;;;;5051095;28;20048;-86
2023/04/06 02:25:50;;;;;;;9.10;5.82;;;;;;;;;;5053159;28;20048;-86
2023/04/06 02:28:17;;;;;;;11.68;5.22;;;;;;;;;;5053183;28;20055;-86
2023/04/06 02:30:45;;;;;;;6.72;5.40;;;;;;;;;;5053256;28;20575;-85
2023/04/06 02:33:12;;;;;;;9.27;5.45;;;;;;;;;;5052385;28;20051;-86
2023/04/06 02:35:39;;;;;;;8.43;5.22;;;;;;;;;;5053216;28;20056;-86
2023/04/06 02:38:06;;;;;;;7.60;5.43;;;;;;;;;;5053097;28;20136;-86
2023/04/06 02:40:34;;;;;;;6.13;5.45;;;;;;;;;;5053216;28;20417;-86
2023/04/06 02:43:01;;;;;;;11.48;5.85;;;;;;;;;;5053217;28;20053;-86
2023/04/06 02:45:28;;;;;;;9.25;6.60;;;;;;;;;;5051848;28;20501;-85
2023/04/06 02:47:55;;;;;;;12.15;7.10;;;;;;;;;;5052595;28;20052;-85
2023/04/06 02:50:22;;;;;;;8.95;6.57;;;;;;;;;;5052934;28;20049;-86
2023/04/06 02:52:50;;;;;;;11.35;6.53;;;;;;;;;;5052086;28;20067;-86
2023/04/06 02:55:17;;;;;;;8.27;6.07;;;;;;;;;;5051848;28;20076;-87
2023/04/06 02:57:47;;;;;;;7.60;6.10;;;;;;;;;;5052991;28;20095;-86
2023/04/06 03:00:14;;;;;;;6.85;5.28;;;;;;;;;;5052656;28;20045;-86
2023/04/06 03:02:41;;;;;;;13.27;6.00;;;;;;;;;;5051493;28;20049;-86
2023/04/06 03:05:09;;;;;;;8.60;6.28;;;;;;;;;;5052803;28;20056;-86
2023/04/06 03:07:36;;;;;;;8.40;5.47;;;;;;;;;;5052989;28;20049;-86
2023/04/06 03:10:04;;;;;;;7.82;5.93;;;;;;;;;;5052019;28;20064;-86
2023/04/06 03:12:31;;;;;;;10.88;6.45;;;;;;;;;;5052271;28;20393;-86
2023/04/06 03:14:58;;;;;;;9.50;6.45;;;;;;;;;;5051791;28;20053;-86
2023/04/06 03:17:25;;;;;;;9.23;6.65;;;;;;;;;;5050732;28;20045;-86
2023/04/06 03:19:52;;;;;;;8.65;6.80;;;;;;;;;;5051920;28;20045;-86
2023/04/06 03:22:20;;;;;;;9.15;7.10;;;;;;;;;;5051839;28;20405;-86
2023/04/06 03:24:47;;;;;;;10.18;7.18;;;;;;;;;;5053032;28;20048;-86
2023/04/06 03:27:15;;;;;;;9.00;6.57;;;;;;;;;;5051988;28;20048;-86
2023/04/06 03:29:42;;;;;;;15.25;8.18;;;;;;;;;;5051958;28;20049;-86
2023/04/06 03:32:10;;;;;;;8.45;6.38;;;;;;;;;;5052771;28;20045;-87
2023/04/06 03:34:37;;;;;;;9.25;5.93;;;;;;;;;;5051517;28;20063;-87
2023/04/06 03:37:05;;;;;;;9.32;6.50;;;;;;;;;;5052683;28;20049;-86
2023/04/06 03:39:36;;;;;;;10.80;6.95;;;;;;;;;;5052796;28;20525;-86
2023/04/06 03:42:04;;;;;;;8.70;7.43;;;;;;;;;;5052743;28;20059;-87
2023/04/06 03:44:31;;;;;;;15.07;7.78;;;;;;;;;;5052638;28;20049;-87
2023/04/06 03:46:59;;;;;;;10.80;7.38;;;;;;;;;;5052365;28;20077;-87
2023/04/06 03:49:26;;;;;;;11.15;8.07;;;;;;;;;;5041125;28;20055;-87
2023/04/06 03:51:54;;;;;;;10.45;7.43;;;;;;;;;;5052726;28;20048;-87
2023/04/06 03:54:21;;;;;;;12.23;7.88;;;;;;;;;;5035163;28;20080;-86
2023/04/06 03:56:48;;;;;;;14.45;7.88;;;;;;;;;;5035164;28;20048;-86
2023/04/06 03:59:15;;;;;;;11.90;8.38;;;;;;;;;;5036339;28;20148;-87
2023/04/06 04:01:43;;;;;;;8.55;7.00;;;;;;;;;;5038696;28;20510;-87
2023/04/06 04:04:10;;;;;;;12.00;8.23;;;;;;;;;;5038845;28;20049;-87
2023/04/06 04:06:37;;;;;;;13.55;7.45;;;;;;;;;;5055963;28;20049;-87
2023/04/06 04:09:05;;;;;;;13.18;7.07;;;;;;;;;;5038772;28;20053;-86
2023/04/06 04:11:32;;;;;;;13.13;7.28;;;;;;;;;;5056118;28;20049;-87
2023/04/06 04:13:59;;;;;;;12.75;7.60;;;;;;;;;;5038498;28;20052;-87
2023/04/06 04:16:26;;;;;;;10.55;7.47;;;;;;;;;;5038500;28;20413;-87
2023/04/06 04:18:53;;;;;;;9.60;7.45;;;;;;;;;;5038425;28;20041;-87
2023/04/06 04:21:21;;;;;;;11.38;7.82;;;;;;;;;;5038623;28;20049;-87
2023/04/06 04:23:48;;;;;;;12.73;7.85;;;;;;;;;;5056117;28;20049;-87
2023/04/06 04:26:15;;;;;;;11.30;7.57;;;;;;;;;;5055686;28;20143;-85
2023/04/06 04:28:42;;;;;;;11.88;7.00;;;;;;;;;;5055735;28;20486;-86
2023/04/06 04:31:10;;;;;;;13.88;7.55;;;;;;;;;;5038457;28;20492;-86
2023/04/06 04:33:37;;;;;;;11.57;7.45;;;;;;;;;;5055716;28;20128;-87
2023/04/06 04:36:04;;;;;;;12.80;8.40;;;;;;;;;;5038050;28;20056;-87
2023/04/06 04:38:32;;;;;;;13.43;8.95;;;;;;;;;;5055901;28;20049;-86
2023/04/06 04:40:59;;;;;;;11.98;8.32;;;;;;;;;;5037840;28;20060;-86
2023/04/06 04:43:26;;;;;;;16.88;8.65;;;;;;;;;;5037934;28;20057;-86
2023/04/06 04:45:53;;;;;;;11.25;7.97;;;;;;;;;;5055553;28;20057;-87
2023/04/06 04:48:20;;;;;;;13.55;8.95;;;;;;;;;;5038005;28;20045;-87
2023/04/06 04:50:48;;;;;;;10.35;7.88;;;;;;;;;;5055573;28;20087;-87
2023/04/06 04:53:15;;;;;;;12.13;8.25;;;;;;;;;;5037865;28;20051;-87
2023/04/06 04:55:42;;;;;;;9.43;7.95;;;;;;;;;;5055240;28;20084;-86
2023/04/06 04:58:14;;;;;;;11.15;8.68;;;;;;;;;;5037632;28;20052;-86
2023/04/06 05:00:41;;;;;;;11.73;7.90;;;;;;;;;;5037601;28;20056;-87
2023/04/06 05:03:09;;;;;;;11.77;9.10;;;;;;;;;;5037784;28;20045;-87
2023/04/06 05:05:36;;;;;;;14.45;9.15;;;;;;;;;;5037644;28;20386;-87
2023/04/06 05:08:03;;;;;;;16.10;8.88;;;;;;;;;;5055188;28;20045;-87
2023/04/06 05:10:30;;;;;;;14.55;9.95;;;;;;;;;;5053772;28;20061;-87
2023/04/06 05:12:58;;;;;;;14.60;9.20;;;;;;;;;;5037394;28;20417;-86
2023/04/06 05:15:25;;;;;;;17.92;8.45;;;;;;;;;;5054769;28;20041;-87
2023/04/06 05:17:52;;;;;;;12.05;8.55;;;;;;;;;;5055313;28;20048;-86
2023/04/06 05:20:19;;;;;;;16.85;9.90;;;;;;;;;;5054744;28;20060;-86
2023/04/06 05:22:46;;;;;;;16.90;8.70;;;;;;;;;;5054696;28;20041;-86
2023/04/06 05:25:14;;;;;;;16.88;8.25;;;;;;;;;;5037132;28;20049;-86
2023/04/06 05:27:41;;;;;;;13.98;9.52;;;;;;;;;;5037106;28;20076;-86
2023/04/06 05:30:09;;;;;;;14.80;9.18;;;;;;;;;;5036801;28;20053;-86
2023/04/06 05:32:36;;;;;;;15.00;9.95;;;;;;;;;;5037114;28;20129;-86
2023/04/06 05:35:04;;;;;;;20.05;10.57;;;;;;;;;;5037164;28;20071;-86
2023/04/06 05:37:31;;;;;;;17.55;12.50;;;;;;;;;;5036563;28;20382;-87
2023/04/06 05:39:58;;;;;;;24.05;14.68;;;;;;;;;;5054104;28;20088;-87
2023/04/06 05:42:26;;;;;;;28.77;16.02;;;;;;;;;;5036829;28;20067;-87
2023/04/06 05:44:54;;;;;;;27.48;16.38;;;;;;;;;;5036482;28;20123;-86
2023/04/06 05:47:21;;;;;;;23.20;14.98;;;;;;;;;;5036679;28;20041;-88
2023/04/06 05:49:48;;;;;;;31.08;15.95;;;;;;;;;;5037102;28;20053;-88
2023/04/06 05:52:16;;;;;;;27.98;13.13;;;;;;;;;;5037020;28;20052;-88
2023/04/06 05:54:43;;;;;;;38.35;11.65;;;;;;;;;;5036639;28;20055;-89
2023/04/06 05:57:10;;;;;;;26.88;11.45;;;;;;;;;;5054435;28;20137;-91
2023/04/06 05:59:37;;;;;;;22.80;9.02;;;;;;;;;;5054386;28;20064;-92
2023/04/06 06:02:05;;;;;;;26.13;9.00;;;;;;;;;;5037354;28;20049;-93
2023/04/06 06:04:33;;;;;;;42.28;10.90;;;;;;;;;;5036500;28;20064;-93
2023/04/06 06:07:00;;;;;;;30.23;8.88;;;;;;;;;;5036292;28;20053;-94
2023/04/06 06:09:28;;;;;;;26.13;8.73;;;;;;;;;;5036357;28;20059;-96
2023/04/06 06:11:55;;;;;;;23.55;9.15;;;;;;;;;;5045064;28;20045;-96
2023/04/06 06:18:07;;;;;;;17.98;6.05;;;;;;;;;;5111562;23;20147;-83
2023/04/06 06:20:35;;;;;;;21.75;5.22;;;;;;;;;;5060348;28;20060;-84
2023/04/06 06:23:02;;;;;;;16.15;4.72;;;;;;;;;;5079420;28;20382;-83
2023/04/06 06:25:49;;;;;;;17.55;4.53;;;;;;;;;;5060505;28;20072;-83
2023/04/06 06:28:16;;;;;;;19.67;4.85;;;;;;;;;;5039431;28;20136;-84
2023/04/06 06:30:49;;;;;;;15.75;5.07;;;;;;;;;;5038846;28;20049;-84
2023/04/06 06:33:17;;;;;;;;;;;;;;;;;;5039178;28;20087;-85
2023/04/06 06:35:44;;;;;;;12.52;4.20;;;;;;;;;;5038866;28;19920;-85
2023/04/06 06:38:16;;;;;;;9.07;3.85;;;;;;;;;;5038389;28;20053;-85
2023/04/06 06:40:43;;;;;;;15.88;4.30;;;;;;;;;;5038257;28;20458;-85
2023/04/06 06:43:44;;;;;;;12.60;3.60;;;;;;;;;;5037294;28;20449;-85
2023/04/06 06:46:11;;;;;;;13.18;4.13;;;;;;;;;;5037209;28;20077;-85
2023/04/06 06:48:46;;;;;;;6.38;3.42;;;;;;;;;;5036862;28;20413;-84
2023/04/06 06:51:13;;;;;;;7.13;3.45;;;;;;;;;;5036752;28;20152;-84
2023/04/06 06:53:44;;;;;;;19.73;3.97;;;;;;;;;;5036788;28;20059;-85
2023/04/06 06:56:12;;;;;;;13.93;3.80;;;;;;;;;;5036497;28;20045;-85
2023/04/06 06:58:40;;;;;;;9.10;3.97;;;;;;;;;;5036406;28;20052;-85
2023/04/06 07:01:07;;;;;;;6.68;3.28;;;;;;;;;;5036285;28;20500;-85
2023/04/06 07:03:45;;;;;;;6.88;3.95;;;;;;;;;;5036434;28;20052;-85
2023/04/06 07:06:12;;;;;;;9.52;3.70;;;;;;;;;;5055282;28;20055;-87
2023/04/06 07:08:41;;;;;;;18.95;3.78;;;;;;;;;;5039273;28;20112;-87
2023/04/06 07:11:09;;;;;;;11.55;4.82;;;;;;;;;;5037994;28;20077;-86
2023/04/06 07:13:36;;;;;;;4.95;3.28;;;;;;;;;;5038638;28;20056;-86
2023/04/06 07:16:15;;;;;;;9.63;3.53;;;;;;;;;;5036658;28;20128;-86
2023/04/06 07:18:50;;;;;;;12.25;3.63;;;;;;;;;;5035912;28;20053;-85
2023/04/06 07:21:18;;;;;;;10.55;3.65;;;;;;;;;;5053643;28;20045;-86
2023/04/06 07:23:47;;;;;;;9.93;3.75;;;;;;;;;;5035809;28;20049;-86
2023/04/06 07:26:17;;;;;;;10.63;3.80;;;;;;;;;;5038472;28;20077;-86
2023/04/06 07:28:44;;;;;;;12.25;3.45;;;;;;;;;;5038275;28;20049;-86
2023/04/06 07:31:16;;;;;;;6.47;3.15;;;;;;;;;;5038597;28;20140;-86
2023/04/06 07:33:44;;;;;;;5.03;3.00;;;;;;;;;;5038458;28;20080;-86
2023/04/06 07:36:30;;;;;;;11.38;3.05;;;;;;;;;;5042088;28;20080;-87
2023/04/06 07:38:57;;;;;;;7.32;3.10;;;;;;;;;;5041579;28;20045;-86
2023/04/06 07:41:25;;;;;;;6.72;3.22;;;;;;;;;;5058793;28;20044;-86
2023/04/06 07:44:21;;;;;;;9.25;3.03;;;;;;;;;;5041898;28;20135;-86
2023/04/06 07:46:49;;;;;;;5.05;2.85;;;;;;;;;;5058709;28;20053;-86
2023/04/06 07:49:16;;;;;;;5.90;2.90;;;;;;;;;;5058183;28;20084;-87
2023/04/06 07:51:45;;;;;;;4.88;2.83;;;;;;;;;;5040649;28;20069;-86
2023/04/06 07:54:13;;;;;;;8.82;3.05;;;;;;;;;;5040163;28;20053;-86
2023/04/06 07:56:43;;;;;;;9.00;3.25;;;;;;;;;;5040031;28;20120;-86
2023/04/06 07:59:13;;;;;;;7.35;2.60;;;;;;;;;;5041735;28;20085;-87
2023/04/06 08:01:41;;;;;;;7.30;2.92;;;;;;;;;;5041132;28;20051;-86
2023/04/06 08:04:13;;;;;;;9.00;3.03;;;;;;;;;;5039438;28;20511;-87
2023/04/06 08:06:41;;;;;;;7.53;2.78;;;;;;;;;;5039876;28;20056;-87
2023/04/06 08:09:13;;;;;;;5.55;2.67;;;;;;;;;;5039743;28;20485;-87
2023/04/06 08:11:40;;;;;;;8.35;2.53;;;;;;;;;;5058315;28;20135;-84
2023/04/06 08:14:08;;;;;;;4.65;2.50;;;;;;;;;;5041800;28;20508;-84
2023/04/06 08:16:37;;;;;;;5.15;2.63;;;;;;;;;;5040674;28;20071;-86
2023/04/06 08:19:05;;;;;;;3.92;3.13;;;;;;;;;;5041890;28;20104;-86
2023/04/06 08:21:32;;;;;;;3.00;2.60;;;;;;;;;;5058336;28;20045;-86
2023/04/06 08:23:59;;;;;;;6.72;3.30;;;;;;;;;;5039542;28;20048;-85
2023/04/06 08:26:29;;;;;;;3.00;2.55;;;;;;;;;;5039152;28;20079;-86
2023/04/06 08:28:56;;;;;;;5.18;2.78;;;;;;;;;;5039871;28;20505;-86
2023/04/06 08:31:24;;;;;;;10.82;2.95;;;;;;;;;;5039070;28;20098;-86
2023/04/06 08:34:08;;;;;;;6.30;2.85;;;;;;;;;;5057437;28;20057;-85
2023/04/06 08:36:39;;;;;;;7.85;3.50;;;;;;;;;;5039280;28;20084;-86
2023/04/06 08:39:30;;;;;;;4.18;2.80;;;;;;;;;;5038972;28;20091;-86
2023/04/06 08:41:59;;;;;;;13.10;3.38;;;;;;;;;;5038527;28;20055;-86
2023/04/06 08:44:30;;;;;;;9.55;3.05;;;;;;;;;;5038273;28;20059;-86
2023/04/06 08:46:58;;;;;;;3.15;2.85;;;;;;;;;;5036820;28;20084;-86
2023/04/06 08:49:25;;;;;;;6.55;2.83;;;;;;;;;;5038315;28;20524;-85
2023/04/06 08:51:57;;;;;;;10.43;3.50;;;;;;;;;;5038762;28;20156;-86
2023/04/06 08:54:24;;;;;;;35.85;5.78;;;;;;;;;;5038159;28;20084;-86
2023/04/06 08:56:52;;;;;;;5.15;2.60;;;;;;;;;;5038104;28;20057;-83
2023/04/06 08:59:38;;;;;;;47.28;7.15;;;;;;;;;;5038245;28;20049;-83
2023/04/06 09:02:06;;;;;;;15.10;4.13;;;;;;;;;;5038137;28;20087;-85
2023/04/06 09:04:35;;;;;;;6.13;3.38;;;;;;;;;;5038647;28;20103;-85
2023/04/06 09:07:02;;;;;;;4.35;2.72;;;;;;;;;;5029078;28;20045;-84
2023/04/06 09:09:36;;;;;;;2.90;2.70;;;;;;;;;;5019472;28;20411;-84
2023/04/06 09:12:05;;;;;;;3.78;2.95;;;;;;;;;;5034851;28;20080;-82
2023/04/06 09:14:39;;;;;;;3.88;2.80;;;;;;;;;;5019029;28;20061;-83
2023/04/06 09:17:06;;;;;;;3.15;2.85;;;;;;;;;;5046951;23;20053;-86
2023/04/06 09:19:33;;;;;;;2.90;2.60;;;;;;;;;;5037424;28;20090;-85
2023/04/06 09:22:07;;;;;;;2.67;2.42;;;;;;;;;;5055112;28;20045;-85
2023/04/06 09:24:34;;;;;;;;;;;;;;;;;;5038067;28;20485;-85
2023/04/06 09:27:01;;;;;;;6.00;2.50;;;;;;;;;;5037637;28;19920;-86
2023/04/06 09:29:29;;;;;;;3.00;2.67;;;;;;;;;;5037469;28;20516;-85
2023/04/06 09:32:12;;;;;;;2.97;2.70;;;;;;;;;;5037853;28;20045;-85
2023/04/06 09:34:39;;;;;;;4.97;3.10;;;;;;;;;;5037377;28;20133;-84
2023/04/06 09:37:17;;;;;;;4.07;2.40;;;;;;;;;;5057869;28;20045;-86
2023/04/06 09:39:45;;;;;;;2.90;2.33;;;;;;;;;;5038408;28;20130;-86
2023/04/06 09:42:24;;;;;;;5.32;2.72;;;;;;;;;;5040053;28;20493;-85
2023/04/06 09:44:51;;;;;;;3.58;3.00;;;;;;;;;;5034278;28;20050;-85
2023/04/06 09:47:19;;;;;;;5.20;2.85;;;;;;;;;;5020003;28;20509;-86
2023/04/06 09:49:48;;;;;;;3.05;2.85;;;;;;;;;;5020171;28;20045;-86
2023/04/06 09:52:20;;;;;;;2.90;2.70;;;;;;;;;;5032377;28;20045;-86
2023/04/06 09:54:48;;;;;;;5.90;2.78;;;;;;;;;;5022924;28;20132;-86
2023/04/06 09:57:26;;;;;;;3.35;3.05;;;;;;;;;;5035078;28;20056;-86
2023/04/06 10:00:03;;;;;;;2.80;2.60;;;;;;;;;;5037686;28;20074;-85
2023/04/06 10:02:50;;;;;;;3.08;2.88;;;;;;;;;;5035086;28;20383;-85
2023/04/06 10:05:17;;;;;;;7.28;2.83;;;;;;;;;;5018111;28;20049;-86
2023/04/06 10:07:45;;;;;;;3.90;2.22;;;;;;;;;;5037046;28;20498;-86
2023/04/06 10:10:26;;;;;;;3.63;2.75;;;;;;;;;;5039170;28;20067;-86
2023/04/06 10:12:54;;;;;;;5.65;2.60;;;;;;;;;;5037101;28;20056;-85
2023/04/06 10:15:22;;;;;;;4.93;2.95;;;;;;;;;;5037213;28;20080;-85
2023/04/06 10:17:51;;;;;;;2.85;2.65;;;;;;;;;;5037784;28;20110;-86
2023/04/06 10:20:24;;;;;;;4.38;3.13;;;;;;;;;;5038279;28;20045;-85
2023/04/06 10:23:00;;;;;;;3.35;2.70;;;;;;;;;;5038987;28;20075;-86
2023/04/06 10:25:31;;;;;;;4.50;2.85;;;;;;;;;;5033088;28;20128;-85
2023/04/06 10:28:05;;;;;;;5.00;2.65;;;;;;;;;;5036372;28;20417;-86
2023/04/06 10:30:33;;;;;;;3.30;2.90;;;;;;;;;;5037095;28;20087;-85
2023/04/06 10:33:00;;;;;;;2.90;2.70;;;;;;;;;;5036625;28;20087;-85
2023/04/06 10:35:38;;;;;;;2.95;2.75;;;;;;;;;;5016872;28;20061;-86
2023/04/06 10:38:06;;;;;;;3.70;2.38;;;;;;;;;;5016748;28;20111;-86
2023/04/06 10:40:38;;;;;;;3.70;2.42;;;;;;;;;;5016406;28;20042;-86
2023/04/06 10:43:08;;;;;;;3.88;2.45;;;;;;;;;;5020183;28;20080;-86
2023/04/06 10:45:37;;;;;;;2.70;2.47;;;;;;;;;;5016626;28;20045;-85
2023/04/06 10:48:14;;;;;;;2.95;2.38;;;;;;;;;;5018114;28;20045;-85
2023/04/06 10:50:44;;;;;;;2.42;2.22;;;;;;;;;;5039611;28;20052;-85
2023/04/06 10:53:11;;;;;;;2.83;2.30;;;;;;;;;;5056741;28;20052;-86
2023/04/06 10:55:41;;;;;;;4.05;2.15;;;;;;;;;;5056242;28;20509;-85
2023/04/06 10:58:08;;;;;;;3.08;2.53;;;;;;;;;;5041430;28;20061;-86
2023/04/06 11:00:36;;;;;;;3.67;2.30;;;;;;;;;;5016707;28;20046;-84
2023/04/06 11:03:16;;;;;;;3.38;2.30;;;;;;;;;;5022977;28;20052;-85
2023/04/06 11:05:45;;;;;;;4.72;2.58;;;;;;;;;;5036289;28;20099;-85
2023/04/06 11:08:24;;;;;;;2.63;2.45;;;;;;;;;;5053693;28;20041;-84
2023/04/06 11:10:51;;;;;;;2.80;2.60;;;;;;;;;;5036180;28;20136;-85
2023/04/06 11:13:18;;;;;;;2.70;2.50;;;;;;;;;;5020641;28;20057;-85
2023/04/06 11:15:46;;;;;;;15.38;4.13;;;;;;;;;;5043114;28;20053;-86
2023/04/06 11:18:13;;;;;;;5.45;2.50;;;;;;;;;;5019757;28;20053;-84
2023/04/06 11:20:41;;;;;;;10.40;2.85;;;;;;;;;;5026924;28;20148;-85
2023/04/06 11:23:08;;;;;;;3.00;2.80;;;;;;;;;;5039200;28;20084;-85
2023/04/06 11:25:35;;;;;;;4.93;2.75;;;;;;;;;;5040045;28;20077;-85
2023/04/06 11:28:02;;;;;;;2.80;2.60;;;;;;;;;;5040240;28;20136;-86
2023/04/06 11:30:31;;;;;;;68.30;7.72;;;;;;;;;;5040031;28;20103;-85
2023/04/06 11:33:02;;;;;;;4.05;3.00;;;;;;;;;;5040215;28;20053;-86
2023/04/06 11:35:32;;;;;;;2.78;2.58;;;;;;;;;;5053221;28;20052;-85
2023/04/06 11:38:03;;;;;;;3.80;3.17;;;;;;;;;;5038793;28;20110;-86
2023/04/06 11:40:31;;;;;;;3.50;2.60;;;;;;;;;;5038842;28;20045;-85
2023/04/06 11:42:58;;;;;;;4.13;2.92;;;;;;;;;;5038851;28;20108;-85
2023/04/06 11:45:26;;;;;;;3.08;2.75;;;;;;;;;;5037058;28;20041;-86
2023/04/06 11:47:59;;;;;;;3.42;2.85;;;;;;;;;;5039583;28;20092;-85
2023/04/06 11:50:32;;;;;;;3.17;2.83;;;;;;;;;;5038628;28;20052;-85
2023/04/06 11:53:00;;;;;;;3.40;2.47;;;;;;;;;;5038830;28;20087;-86
2023/04/06 11:55:28;;;;;;;4.00;2.70;;;;;;;;;;5056365;28;20052;-85
2023/04/06 11:57:56;;;;;;;2.95;2.60;;;;;;;;;;5040422;28;20053;-85
2023/04/06 12:00:23;;;;;;;3.00;2.60;;;;;;;;;;5038554;28;20493;-84
2023/04/06 12:02:51;;;;;;;3.25;2.90;;;;;;;;;;5038610;28;20064;-85
2023/04/06 12:05:18;;;;;;;4.07;2.65;;;;;;;;;;5038655;28;20053;-86
2023/04/06 12:07:45;;;;;;;2.75;2.55;;;;;;;;;;5039285;28;20490;-86
2023/04/06 12:10:13;;;;;;;4.28;2.97;;;;;;;;;;5039281;28;20114;-86
2023/04/06 12:12:40;;;;;;;4.60;2.75;;;;;;;;;;5038963;28;20120;-85
2023/04/06 12:15:08;;;;;;;3.20;2.75;;;;;;;;;;5055854;28;20110;-85
2023/04/06 12:17:36;;;;;;;3.00;2.70;;;;;;;;;;5021552;28;1079798;-84
2023/04/06 12:20:04;;;;;;;2.70;2.50;;;;;;;;;;5050293;28;20044;-86
2023/04/06 12:22:51;;;;;;;3.17;2.88;;;;;;;;;;5048602;28;20175;-86
2023/04/06 12:25:18;;;;;;;5.47;3.38;;;;;;;;;;5039406;28;20084;-84
2023/04/06 12:27:45;;;;;;;4.20;2.60;;;;;;;;;;5039672;28;20541;-84
2023/04/06 12:30:13;;;;;;;3.88;2.50;;;;;;;;;;5042502;28;20446;-85
2023/04/06 12:32:40;;;;;;;3.30;3.00;;;;;;;;;;5042469;28;20067;-85
2023/04/06 12:35:11;;;;;;;25.40;4.20;;;;;;;;;;5039773;28;20054;-86
2023/04/06 12:37:38;;;;;;;16.02;3.33;;;;;;;;;;5019133;28;20061;-86
2023/04/06 12:40:06;;;;;;;3.20;2.67;;;;;;;;;;5023071;28;20088;-85
2023/04/06 12:42:33;;;;;;;3.90;3.50;;;;;;;;;;5018357;28;20049;-86
2023/04/06 12:45:00;;;;;;;3.28;2.65;;;;;;;;;;5036372;28;20514;-84
2023/04/06 12:47:28;;;;;;;3.30;3.00;;;;;;;;;;5038338;28;20041;-84
2023/04/06 12:49:56;;;;;;;3.22;3.00;;;;;;;;;;5055206;28;20067;-85
2023/04/06 12:52:23;;;;;;;4.57;3.10;;;;;;;;;;5056524;28;20049;-84
2023/04/06 12:54:51;;;;;;;3.10;2.80;;;;;;;;;;5038939;28;20049;-85
2023/04/06 12:57:18;;;;;;;3.65;2.88;;;;;;;;;;5039498;28;20060;-86
2023/04/06 12:59:46;;;;;;;3.95;3.42;;;;;;;;;;5036460;28;20100;-85
2023/04/06 13:02:13;;;;;;;3.30;3.00;;;;;;;;;;5026587;28;20124;-86
2023/04/06 13:04:41;;;;;;;5.88;2.42;;;;;;;;;;5020222;28;20494;-85
2023/04/06 13:07:08;;;;;;;2.97;2.42;;;;;;;;;;5020858;28;20406;-85
2023/04/06 13:09:35;;;;;;;4.28;3.80;;;;;;;;;;5028069;28;20509;-85
2023/04/06 13:12:03;;;;;;;4.15;2.60;;;;;;;;;;5048558;28;20080;-84
2023/04/06 13:14:31;;;;;;;4.82;2.50;;;;;;;;;;5056277;28;20042;-85
2023/04/06 13:16:58;;;;;;;4.82;3.45;;;;;;;;;;5038717;28;20087;-84
2023/04/06 13:19:26;;;;;;;3.22;3.00;;;;;;;;;;5037902;28;20071;-84
2023/04/06 13:21:53;;;;;;;3.70;3.40;;;;;;;;;;5055416;28;20076;-84
2023/04/06 13:24:21;;;;;;;3.40;3.15;;;;;;;;;;5054579;28;20045;-85
2023/04/06 13:26:48;;;;;;;3.38;3.08;;;;;;;;;;5018947;28;20045;-85
2023/04/06 13:29:16;;;;;;;5.25;3.50;;;;;;;;;;5036843;28;20175;-85
2023/04/06 13:31:43;;;;;;;5.70;3.60;;;;;;;;;;5018408;28;20091;-85
2023/04/06 13:34:10;;;;;;;4.18;3.28;;;;;;;;;;5022304;28;20048;-84
2023/04/06 13:36:40;;;;;;;3.15;2.88;;;;;;;;;;5038389;28;20084;-85
2023/04/06 13:39:07;;;;;;;5.53;3.10;;;;;;;;;;5037903;28;20049;-84
2023/04/06 13:41:35;;;;;;;3.95;2.90;;;;;;;;;;5029465;28;20498;-85
2023/04/06 13:44:02;;;;;;;3.30;3.00;;;;;;;;;;5037995;28;20106;-85
2023/04/06 13:46:29;;;;;;;4.63;3.30;;;;;;;;;;5037536;28;20401;-85
2023/04/06 13:48:57;;;;;;;6.10;3.70;;;;;;;;;;5037589;28;20486;-85
2023/04/06 13:51:24;;;;;;;3.60;3.13;;;;;;;;;;5018046;28;20053;-84
2023/04/06 13:53:53;;;;;;;4.43;3.10;;;;;;;;;;5036784;28;20052;-86
2023/04/06 13:56:20;;;;;;;7.75;3.30;;;;;;;;;;5038590;28;20135;-86
2023/04/06 13:58:48;;;;;;;6.82;3.35;;;;;;;;;;5035741;28;20053;-85
2023/04/06 14:01:15;;;;;;;3.35;3.03;;;;;;;;;;5035466;28;20115;-86
2023/04/06 14:03:46;;;;;;;3.88;3.10;;;;;;;;;;5035753;28;20048;-85
2023/04/06 14:06:14;;;;;;;6.82;3.10;;;;;;;;;;5036000;28;20037;-85
2023/04/06 14:08:57;;;;;;;3.97;3.67;;;;;;;;;;5036036;28;20080;-85
2023/04/06 14:11:24;;;;;;;4.00;3.67;;;;;;;;;;5053721;28;20056;-85
2023/04/06 14:13:51;;;;;;;4.63;3.63;;;;;;;;;;5053343;28;20132;-85
2023/04/06 14:16:21;;;;;;;8.07;3.42;;;;;;;;;;5053397;28;20122;-85
2023/04/06 14:18:48;;;;;;;7.30;4.80;;;;;;;;;;5053093;28;20047;-85
2023/04/06 14:21:15;;;;;;;3.65;3.35;;;;;;;;;;5036656;28;20405;-83
2023/04/06 14:23:43;;;;;;;31.52;13.63;;;;;;;;;;5036758;28;20453;-85
2023/04/06 14:26:11;;;;;;;4.40;4.00;;;;;;;;;;5053820;28;20502;-84
2023/04/06 14:28:38;;;;;;;7.97;5.07;;;;;;;;;;5033432;28;20132;-85
2023/04/06 14:31:13;;;;;;;6.80;3.10;;;;;;;;;;5057469;28;20045;-85
2023/04/06 14:33:40;;;;;;;4.13;3.72;;;;;;;;;;5039929;28;20045;-86
2023/04/06 14:36:08;;;;;;;4.10;3.80;;;;;;;;;;5039455;28;20055;-85
2023/04/06 14:38:36;;;;;;;6.53;4.05;;;;;;;;;;5040975;28;20090;-85
2023/04/06 14:41:03;;;;;;;4.40;3.85;;;;;;;;;;5039660;28;20163;-85
2023/04/06 14:43:30;;;;;;;13.70;3.92;;;;;;;;;;5061030;28;20144;-85
2023/04/06 14:46:01;;;;;;;3.40;3.10;;;;;;;;;;5043658;28;20402;-86
2023/04/06 14:48:29;;;;;;;4.30;2.95;;;;;;;;;;5043859;28;20494;-86
2023/04/06 14:50:56;;;;;;;6.07;5.18;;;;;;;;;;5059525;28;20132;-85